Ship Status Report: callsign BATFR20

sailwx.info

Track history (hours):
 
Tides and Currents Weather Stations Pressure Air Temp Water Temp Dewpoint Dewpoint Depression Visibility Wind Speed Wind Dir Waves Ship Positions

Callsign BATFR20 (name unknown)

Last reported at 2015-Jan-30 02:00 UTC. Time now 2015-Jan-30 02:42 UTC.
Position N 43°18' E 007°48'.

Wind from 260 at 38 knots

Barometer 977.9 mb
Air temperature 13.2 ° C
Dewpoint 8.2 ° C

Date/timePositionNaut miles runAvg speedWind from/ knotsBaromVisibWave heightAir tempDewpointWater temp
2015-Jan-30 02:00N 43°18' E 007°48'1818.5 260 / 38977.9 13.2 8.2
2015-Jan-30 01:00N 43°12' E 008°12'1313.1 240 / 45977.9 13.7 9.4
2015-Jan-30 00:00N 43°12' E 008°30'3115.6 220 / 41981.7 12.4 8.9
2015-Jan-29 22:00N 43°06' E 009°12'1817.8 230 / 41986.8 11.9 9.2
2015-Jan-29 21:00N 42°54' E 009°30'1918.5 250 / 16991.1 11.9 7.7
2015-Jan-29 20:00N 42°36' E 009°36'2424.0 300 / 13992.9 12.5 5.9
2015-Jan-29 19:00N 42°12' E 009°36'1918.5 270 / 4995.0 13.4 4.5
2015-Jan-29 18:00N 41°54' E 009°30'20 1.8 220 / 20996.6 13.2 5.7
2015-Jan-29 07:00N 41°36' E 009°18'2010.1 230 / 211005.0 12.2 6.7
2015-Jan-29 05:00N 41°18' E 009°06'1514.8 270 / 271008.7 11.4 9.2
2015-Jan-29 04:00N 41°24' E 008°48'2221.6 290 / 251009.5 12.4 7.7
2015-Jan-29 03:00N 41°36' E 008°24'1818.0 270 / 211010.6 11.9 6.4
2015-Jan-29 02:00N 41°48' E 008°06'1818.0 280 / 221011.6 11.7 5.4
2015-Jan-29 01:00N 42°00' E 007°48'1918.8 280 / 251012.2 11.7 4.9
2015-Jan-29 00:00N 42°06' E 007°24'2121.5 280 / 251012.7 11.4 5.5
2015-Jan-28 23:00N 42°18' E 007°00'1817.9 280 / 241013.2 11.0 3.9
2015-Jan-28 22:00N 42°30' E 006°42'1918.7 290 / 221013.8 10.9 3.7
2015-Jan-28 21:00N 42°36' E 006°18'1817.9 310 / 241015.0 11.0 1.9
2015-Jan-28 20:00N 42°48' E 006°00'2121.3 300 / 231015.6 10.9 3.2
2015-Jan-28 19:00N 43°00' E 005°36'1817.8 320 / 231015.7 10.4 2.7
2015-Jan-28 18:00N 43°12' E 005°18'11 0.8 340 / 181017.010.8 1.0 9.7 0.7
2015-Jan-28 05:00N 43°06' E 005°30'1414.5 340 / 181017.1 6.9-1.3
2015-Jan-28 04:00N 43°00' E 005°48'2713.5 330 / 131017.5 8.2-1.8
2015-Jan-28 02:00N 42°54' E 006°24'1313.2 310 / 181016.8 10.4 0.9
2015-Jan-28 01:00N 42°54' E 006°42'1313.2 340 / 61017.3 11.2 4.4
2015-Jan-28 00:00N 42°54' E 007°00'1918.6 060 / 181016.9 11.9 1.4
2015-Jan-27 23:00N 42°48' E 007°24'1313.2 060 / 201016.7 11.4 5.5
2015-Jan-27 22:00N 42°48' E 007°42'2713.6 060 / 211015.9 11.4 4.5
2015-Jan-27 20:00N 42°42' E 008°18'1817.6 050 / 161014.6 11.4 5.0
2015-Jan-27 19:00N 42°42' E 008°42'1110.7 050 / 191014.5 11.4 4.4
2015-Jan-27 18:00N 42°36' E 008°54'7 0.6 1013.8 10.7 2.9
2015-Jan-27 06:00N 42°42' E 009°00'1313.2 170 / 61015.8 9.7-0.5
2015-Jan-27 05:00N 42°42' E 008°42'1817.6 190 / 61016.6 10.4-1.1
2015-Jan-27 04:00N 42°42' E 008°18'1514.5 190 / 71016.9 10.7-0.8
2015-Jan-27 03:00N 42°48' E 008°00'1817.6 170 / 81017.2 10.7 1.7
2015-Jan-27 02:00N 42°48' E 007°36'1817.6 200 / 81018.2 10.7 2.5
2015-Jan-27 01:00N 42°48' E 007°12'1414.5 210 / 121018.5 10.7 0.4
2015-Jan-27 00:00N 42°54' E 006°54'1817.6 290 / 101019.6 10.4 1.2
2015-Jan-26 23:00N 42°54' E 006°30'1313.2 320 / 111020.2 9.9-0.3
2015-Jan-26 22:00N 42°54' E 006°12'1918.6 340 / 121020.8 9.4 0.2
2015-Jan-26 21:00N 43°00' E 005°48'1414.5 300 / 201021.7 9.0 1.4
2015-Jan-26 20:00N 43°06' E 005°30'1514.8 320 / 241022.4 8.2 2.4
2015-Jan-26 19:00N 43°18' E 005°18'13 0.4 340 / 211023.3 7.2 1.2
2015-Jan-25 07:00N 43°06' E 005°24'1918.5 320 / 221014.4 6.7-1.3
2015-Jan-25 06:00N 43°00' E 005°48'2221.9 310 / 141012.8 9.7-3.3
2015-Jan-25 05:00N 43°00' E 006°18'1817.6 340 / 341010.4 8.9-1.8
2015-Jan-25 04:00N 43°00' E 006°42'4120.6 320 / 221010.2 10.9 2.4
2015-Jan-25 02:00N 43°12' E 007°36'1818.5 050 / 281010.5 12.9-0.1
2015-Jan-25 01:00N 43°18' E 008°00'2322.7 040 / 301009.3 12.4 2.2
2015-Jan-25 00:00N 43°12' E 008°30'1918.5 030 / 161009.1 12.9 5.9
2015-Jan-24 23:00N 43°06' E 008°54'1817.5 050 / 111009.2 12.9 4.4
2015-Jan-24 22:00N 43°06' E 009°18'2020.0 080 / 21009.0 12.5 6.4
2015-Jan-24 21:00N 42°48' E 009°30'1918.5 310 / 81008.5 12.2 5.4
2015-Jan-24 20:00N 42°30' E 009°36'1818.0 280 / 101008.2 10.7 3.9
2015-Jan-24 19:00N 42°12' E 009°36'3819.2 290 / 111008.0 10.9 6.2
2015-Jan-24 17:00N 41°36' E 009°18'0 0.0 1009.0 11.7 4.9
2015-Jan-24 07:00N 41°36' E 009°18'1312.8 340 / 131010.1 12.9 3.7
2015-Jan-24 06:00N 41°24' E 009°24'1514.8 1008.3 13.2 6.2
2015-Jan-24 05:00N 41°18' E 009°06'2221.6 060 / 111009.1 12.7 4.2
2015-Jan-24 04:00N 41°30' E 008°42'1514.7 020 / 101008.8 12.9 7.4
2015-Jan-24 03:00N 41°36' E 008°24'2221.6 350 / 281009.3 13.7 7.9
2015-Jan-24 02:00N 41°48' E 008°00'1818.0 350 / 271009.9 13.7 9.0
2015-Jan-24 01:00N 42°00' E 007°42'1514.7 340 / 231010.5 13.2 9.7
2015-Jan-24 00:00N 42°06' E 007°24'2121.5 320 / 211011.3 12.2 9.2
2015-Jan-23 23:00N 42°18' E 007°00'1817.9 310 / 201011.8 11.4 8.2
2015-Jan-23 22:00N 42°30' E 006°42'3617.9 290 / 201011.8 11.0 7.5
2015-Jan-23 20:00N 42°48' E 006°00'1817.8 300 / 201011.8 9.5 5.4
2015-Jan-23 19:00N 43°00' E 005°42'1817.8 300 / 221011.8 8.5 4.2
2015-Jan-23 18:00N 43°12' E 005°24'7 0.7 340 / 261012.6 6.4 1.9
2015-Jan-23 08:00N 43°18' E 005°18'1312.8 330 / 231011.0 5.2-0.7
2015-Jan-23 07:00N 43°06' E 005°24'1918.5 310 / 321007.9 6.4 1.2
2015-Jan-23 06:00N 43°00' E 005°48'1918.6 300 / 231006.6 8.2 2.9
2015-Jan-23 05:00N 42°54' E 006°12'2322.8 310 / 231005.5 9.7 1.5
2015-Jan-23 04:00N 43°00' E 006°42'2322.7 270 / 111006.3 11.4 4.7
2015-Jan-23 03:00N 43°06' E 007°12'1817.5 310 / 161006.4 10.4 6.2
2015-Jan-23 02:00N 43°06' E 007°36'1918.5 310 / 171006.0 12.2 6.4
2015-Jan-23 01:00N 43°12' E 008°00'2221.9 030 / 321006.1 12.7 5.5
2015-Jan-23 00:00N 43°12' E 008°30'4019.9 020 / 341004.9 11.5 6.0
2015-Jan-22 22:00N 43°06' E 009°24'3718.5 010 / 141006.6 12.7 6.4
2015-Jan-22 20:00N 42°30' E 009°36'2424.0 300 / 211005.6 10.2 8.2
2015-Jan-22 19:00N 42°06' E 009°36'1918.5 330 / 191005.3 10.7 7.4
2015-Jan-22 18:00N 41°48' E 009°30'1515.0 360 / 201005.2 11.2 6.7
2015-Jan-22 17:00N 41°36' E 009°18'0 0.0 060 / 111005.6 9.9 6.2
2015-Jan-22 07:00N 41°36' E 009°18'1312.8 270 / 81008.0 8.5 4.7
2015-Jan-22 06:00N 41°24' E 009°24'3216.0 050 / 51007.7 11.4 6.4
2015-Jan-22 04:00N 41°30' E 008°42'2221.6 160 / 91007.6 11.4 6.2
2015-Jan-22 03:00N 41°42' E 008°18'1514.7 060 / 51008.0 10.5 5.5
2015-Jan-22 02:00N 41°48' E 008°00'2221.5 150 / 111008.0 11.5 4.9
2015-Jan-22 01:00N 42°00' E 007°36'1818.0 160 / 81008.0 11.4 1.9
2015-Jan-22 00:00N 42°12' E 007°18'1817.9 210 / 111008.1 10.9 1.2
2015-Jan-21 23:00N 42°24' E 007°00'1918.7 240 / 211007.2 10.7 1.2
2015-Jan-21 22:00N 42°30' E 006°36'1817.9 260 / 241006.5 10.4 4.5
2015-Jan-21 21:00N 42°42' E 006°18'2121.3 280 / 221005.7 10.2 4.2
2015-Jan-21 20:00N 42°54' E 005°54'1414.5 290 / 151006.0 9.2 5.2
2015-Jan-21 19:00N 43°00' E 005°36'2222.3 280 / 141005.9 8.4 5.4
2015-Jan-21 18:00N 43°18' E 005°18'0 0.0 270 / 171004.2 7.9 6.2
2015-Jan-21 06:00N 43°18' E 005°18'1514.8 310 / 121005.1 8.2 6.9
2015-Jan-21 05:00N 43°06' E 005°30'1414.5 100 / 181005.1 10.7 8.0
2015-Jan-21 04:00N 43°00' E 005°48'2914.5 090 / 251004.9 12.2 8.4
2015-Jan-21 02:00N 42°48' E 006°24'1514.5 090 / 251006.5 12.0 8.2
2015-Jan-21 01:00N 42°42' E 006°42'1817.9 090 / 241006.9 12.0 8.7
2015-Jan-21 00:00N 42°30' E 007°00'1514.6 090 / 231007.2 12.5 8.7
2015-Jan-20 23:00N 42°24' E 007°18'1817.9 100 / 81007.4 12.4 5.7
2015-Jan-20 22:00N 42°12' E 007°36'1514.6 120 / 31007.3 12.4 5.5
2015-Jan-20 21:00N 42°06' E 007°54'1818.0 010 / 21007.2 12.7 4.7
2015-Jan-20 20:00N 41°54' E 008°12'1514.7 020 / 21007.2 12.5 5.0
2015-Jan-20 19:00N 41°48' E 008°30'1514.7 020 / 51007.1 12.5 5.7
2015-Jan-20 18:00N 41°42' E 008°48'4 0.4 100 / 51007.1 10.9 5.7
2015-Jan-20 06:00N 41°42' E 008°54'1313.4 080 / 41007.4 8.7 3.0
2015-Jan-20 05:00N 41°42' E 008°36'1110.8 050 / 51006.8 11.4 6.4
2015-Jan-20 04:00N 41°48' E 008°24'1818.0 070 / 41007.3 12.0 6.5
2015-Jan-20 03:00N 42°00' E 008°06'1514.7 070 / 41007.9 12.4 4.4
2015-Jan-20 02:00N 42°06' E 007°48'   120 / 51008.4 12.4 5.0
Track history (hours):
 
Tides and Currents Weather Stations Pressure Air Temp Water Temp Dewpoint Dewpoint Depression Visibility Wind Speed Wind Dir Waves Ship Positions

Callsign BATFR20 (name unknown)

Last reported at 2015-Jan-30 02:00 UTC. Time now 2015-Jan-30 02:43 UTC.
Position N 43°18' E 007°48'.

Wind from 260 at 38 knots

Barometer 977.9 mb
Air temperature 13.2 ° C
Dewpoint 8.2 ° C

Date/timePositionNaut miles runAvg speedWind from/ knotsBaromVisibWave heightAir tempDewpointWater temp
2015-Jan-30 02:00N 43°18' E 007°48'1818.5 260 / 38977.9 13.2 8.2
2015-Jan-30 01:00N 43°12' E 008°12'1313.1 240 / 45977.9 13.7 9.4
2015-Jan-30 00:00N 43°12' E 008°30'3115.6 220 / 41981.7 12.4 8.9
2015-Jan-29 22:00N 43°06' E 009°12'1817.8 230 / 41986.8 11.9 9.2
2015-Jan-29 21:00N 42°54' E 009°30'1918.5 250 / 16991.1 11.9 7.7
2015-Jan-29 20:00N 42°36' E 009°36'2424.0 300 / 13992.9 12.5 5.9
2015-Jan-29 19:00N 42°12' E 009°36'1918.5 270 / 4995.0 13.4 4.5
2015-Jan-29 18:00N 41°54' E 009°30'20 1.8 220 / 20996.6 13.2 5.7
2015-Jan-29 07:00N 41°36' E 009°18'2010.1 230 / 211005.0 12.2 6.7
2015-Jan-29 05:00N 41°18' E 009°06'1514.8 270 / 271008.7 11.4 9.2
2015-Jan-29 04:00N 41°24' E 008°48'2221.6 290 / 251009.5 12.4 7.7
2015-Jan-29 03:00N 41°36' E 008°24'1818.0 270 / 211010.6 11.9 6.4
2015-Jan-29 02:00N 41°48' E 008°06'1818.0 280 / 221011.6 11.7 5.4
2015-Jan-29 01:00N 42°00' E 007°48'1918.8 280 / 251012.2 11.7 4.9
2015-Jan-29 00:00N 42°06' E 007°24'2121.5 280 / 251012.7 11.4 5.5
2015-Jan-28 23:00N 42°18' E 007°00'1817.9 280 / 241013.2 11.0 3.9
2015-Jan-28 22:00N 42°30' E 006°42'1918.7 290 / 221013.8 10.9 3.7
2015-Jan-28 21:00N 42°36' E 006°18'1817.9 310 / 241015.0 11.0 1.9
2015-Jan-28 20:00N 42°48' E 006°00'2121.3 300 / 231015.6 10.9 3.2
2015-Jan-28 19:00N 43°00' E 005°36'1817.8 320 / 231015.7 10.4 2.7
2015-Jan-28 18:00N 43°12' E 005°18'11 0.8 340 / 181017.010.8 1.0 9.7 0.7
2015-Jan-28 05:00N 43°06' E 005°30'1414.5 340 / 181017.1 6.9-1.3
2015-Jan-28 04:00N 43°00' E 005°48'2713.5 330 / 131017.5 8.2-1.8
2015-Jan-28 02:00N 42°54' E 006°24'1313.2 310 / 181016.8 10.4 0.9
2015-Jan-28 01:00N 42°54' E 006°42'1313.2 340 / 61017.3 11.2 4.4
2015-Jan-28 00:00N 42°54' E 007°00'1918.6 060 / 181016.9 11.9 1.4
2015-Jan-27 23:00N 42°48' E 007°24'1313.2 060 / 201016.7 11.4 5.5
2015-Jan-27 22:00N 42°48' E 007°42'2713.6 060 / 211015.9 11.4 4.5
2015-Jan-27 20:00N 42°42' E 008°18'1817.6 050 / 161014.6 11.4 5.0
2015-Jan-27 19:00N 42°42' E 008°42'1110.7 050 / 191014.5 11.4 4.4
2015-Jan-27 18:00N 42°36' E 008°54'7 0.6 1013.8 10.7 2.9
2015-Jan-27 06:00N 42°42' E 009°00'1313.2 170 / 61015.8 9.7-0.5
2015-Jan-27 05:00N 42°42' E 008°42'1817.6 190 / 61016.6 10.4-1.1
2015-Jan-27 04:00N 42°42' E 008°18'1514.5 190 / 71016.9 10.7-0.8
2015-Jan-27 03:00N 42°48' E 008°00'1817.6 170 / 81017.2 10.7 1.7
2015-Jan-27 02:00N 42°48' E 007°36'1817.6 200 / 81018.2 10.7 2.5
2015-Jan-27 01:00N 42°48' E 007°12'1414.5 210 / 121018.5 10.7 0.4
2015-Jan-27 00:00N 42°54' E 006°54'1817.6 290 / 101019.6 10.4 1.2
2015-Jan-26 23:00N 42°54' E 006°30'1313.2 320 / 111020.2 9.9-0.3
2015-Jan-26 22:00N 42°54' E 006°12'1918.6 340 / 121020.8 9.4 0.2
2015-Jan-26 21:00N 43°00' E 005°48'1414.5 300 / 201021.7 9.0 1.4
2015-Jan-26 20:00N 43°06' E 005°30'1514.8 320 / 241022.4 8.2 2.4
2015-Jan-26 19:00N 43°18' E 005°18'13 0.4 340 / 211023.3 7.2 1.2
2015-Jan-25 07:00N 43°06' E 005°24'1918.5 320 / 221014.4 6.7-1.3
2015-Jan-25 06:00N 43°00' E 005°48'2221.9 310 / 141012.8 9.7-3.3
2015-Jan-25 05:00N 43°00' E 006°18'1817.6 340 / 341010.4 8.9-1.8
2015-Jan-25 04:00N 43°00' E 006°42'4120.6 320 / 221010.2 10.9 2.4
2015-Jan-25 02:00N 43°12' E 007°36'1818.5 050 / 281010.5 12.9-0.1
2015-Jan-25 01:00N 43°18' E 008°00'2322.7 040 / 301009.3 12.4 2.2
2015-Jan-25 00:00N 43°12' E 008°30'1918.5 030 / 161009.1 12.9 5.9
2015-Jan-24 23:00N 43°06' E 008°54'1817.5 050 / 111009.2 12.9 4.4
2015-Jan-24 22:00N 43°06' E 009°18'2020.0 080 / 21009.0 12.5 6.4
2015-Jan-24 21:00N 42°48' E 009°30'1918.5 310 / 81008.5 12.2 5.4
2015-Jan-24 20:00N 42°30' E 009°36'1818.0 280 / 101008.2 10.7 3.9
2015-Jan-24 19:00N 42°12' E 009°36'3819.2 290 / 111008.0 10.9 6.2
2015-Jan-24 17:00N 41°36' E 009°18'0 0.0 1009.0 11.7 4.9
2015-Jan-24 07:00N 41°36' E 009°18'1312.8 340 / 131010.1 12.9 3.7
2015-Jan-24 06:00N 41°24' E 009°24'1514.8 1008.3 13.2 6.2
2015-Jan-24 05:00N 41°18' E 009°06'2221.6 060 / 111009.1 12.7 4.2
2015-Jan-24 04:00N 41°30' E 008°42'1514.7 020 / 101008.8 12.9 7.4
2015-Jan-24 03:00N 41°36' E 008°24'2221.6 350 / 281009.3 13.7 7.9
2015-Jan-24 02:00N 41°48' E 008°00'1818.0 350 / 271009.9 13.7 9.0
2015-Jan-24 01:00N 42°00' E 007°42'1514.7 340 / 231010.5 13.2 9.7
2015-Jan-24 00:00N 42°06' E 007°24'2121.5 320 / 211011.3 12.2 9.2
2015-Jan-23 23:00N 42°18' E 007°00'1817.9 310 / 201011.8 11.4 8.2
2015-Jan-23 22:00N 42°30' E 006°42'3617.9 290 / 201011.8 11.0 7.5
2015-Jan-23 20:00N 42°48' E 006°00'1817.8 300 / 201011.8 9.5 5.4
2015-Jan-23 19:00N 43°00' E 005°42'1817.8 300 / 221011.8 8.5 4.2
2015-Jan-23 18:00N 43°12' E 005°24'7 0.7 340 / 261012.6 6.4 1.9
2015-Jan-23 08:00N 43°18' E 005°18'1312.8 330 / 231011.0 5.2-0.7
2015-Jan-23 07:00N 43°06' E 005°24'1918.5 310 / 321007.9 6.4 1.2
2015-Jan-23 06:00N 43°00' E 005°48'1918.6 300 / 231006.6 8.2 2.9
2015-Jan-23 05:00N 42°54' E 006°12'2322.8 310 / 231005.5 9.7 1.5
2015-Jan-23 04:00N 43°00' E 006°42'2322.7 270 / 111006.3 11.4 4.7
2015-Jan-23 03:00N 43°06' E 007°12'1817.5 310 / 161006.4 10.4 6.2
2015-Jan-23 02:00N 43°06' E 007°36'1918.5 310 / 171006.0 12.2 6.4
2015-Jan-23 01:00N 43°12' E 008°00'2221.9 030 / 321006.1 12.7 5.5
2015-Jan-23 00:00N 43°12' E 008°30'4019.9 020 / 341004.9 11.5 6.0
2015-Jan-22 22:00N 43°06' E 009°24'3718.5 010 / 141006.6 12.7 6.4
2015-Jan-22 20:00N 42°30' E 009°36'2424.0 300 / 211005.6 10.2 8.2
2015-Jan-22 19:00N 42°06' E 009°36'1918.5 330 / 191005.3 10.7 7.4
2015-Jan-22 18:00N 41°48' E 009°30'1515.0 360 / 201005.2 11.2 6.7
2015-Jan-22 17:00N 41°36' E 009°18'0 0.0 060 / 111005.6 9.9 6.2
2015-Jan-22 07:00N 41°36' E 009°18'1312.8 270 / 81008.0 8.5 4.7
2015-Jan-22 06:00N 41°24' E 009°24'3216.0 050 / 51007.7 11.4 6.4
2015-Jan-22 04:00N 41°30' E 008°42'2221.6 160 / 91007.6 11.4 6.2
2015-Jan-22 03:00N 41°42' E 008°18'1514.7 060 / 51008.0 10.5 5.5
2015-Jan-22 02:00N 41°48' E 008°00'2221.5 150 / 111008.0 11.5 4.9
2015-Jan-22 01:00N 42°00' E 007°36'1818.0 160 / 81008.0 11.4 1.9
2015-Jan-22 00:00N 42°12' E 007°18'1817.9 210 / 111008.1 10.9 1.2
2015-Jan-21 23:00N 42°24' E 007°00'1918.7 240 / 211007.2 10.7 1.2
2015-Jan-21 22:00N 42°30' E 006°36'1817.9 260 / 241006.5 10.4 4.5
2015-Jan-21 21:00N 42°42' E 006°18'2121.3 280 / 221005.7 10.2 4.2
2015-Jan-21 20:00N 42°54' E 005°54'1414.5 290 / 151006.0 9.2 5.2
2015-Jan-21 19:00N 43°00' E 005°36'2222.3 280 / 141005.9 8.4 5.4
2015-Jan-21 18:00N 43°18' E 005°18'0 0.0 270 / 171004.2 7.9 6.2
2015-Jan-21 06:00N 43°18' E 005°18'1514.8 310 / 121005.1 8.2 6.9
2015-Jan-21 05:00N 43°06' E 005°30'1414.5 100 / 181005.1 10.7 8.0
2015-Jan-21 04:00N 43°00' E 005°48'2914.5 090 / 251004.9 12.2 8.4
2015-Jan-21 02:00N 42°48' E 006°24'1514.5 090 / 251006.5 12.0 8.2
2015-Jan-21 01:00N 42°42' E 006°42'1817.9 090 / 241006.9 12.0 8.7
2015-Jan-21 00:00N 42°30' E 007°00'1514.6 090 / 231007.2 12.5 8.7
2015-Jan-20 23:00N 42°24' E 007°18'1817.9 100 / 81007.4 12.4 5.7
2015-Jan-20 22:00N 42°12' E 007°36'1514.6 120 / 31007.3 12.4 5.5
2015-Jan-20 21:00N 42°06' E 007°54'1818.0 010 / 21007.2 12.7 4.7
2015-Jan-20 20:00N 41°54' E 008°12'1514.7 020 / 21007.2 12.5 5.0
2015-Jan-20 19:00N 41°48' E 008°30'1514.7 020 / 51007.1 12.5 5.7
2015-Jan-20 18:00N 41°42' E 008°48'4 0.4 100 / 51007.1 10.9 5.7
2015-Jan-20 06:00N 41°42' E 008°54'1313.4 080 / 41007.4 8.7 3.0
2015-Jan-20 05:00N 41°42' E 008°36'1110.8 050 / 51006.8 11.4 6.4
2015-Jan-20 04:00N 41°48' E 008°24'1818.0 070 / 41007.3 12.0 6.5
2015-Jan-20 03:00N 42°00' E 008°06'1514.7 070 / 41007.9 12.4 4.4
2015-Jan-20 02:00N 42°06' E 007°48'   120 / 51008.4 12.4 5.0

Dump ship's entire track history